sensor_id;sensor_type;location;lat;lon;timestamp;pressure;altitude;pressure_sealevel;temperature;humidity
63954;BME280;50128;52.094;5.232;2023-03-14T00:01:27;97454.0;;;2.62;100.0
63954;BME280;50128;52.094;5.232;2023-03-14T00:04:39;97455.0;;;2.65;100.0
63954;BME280;50128;52.094;5.232;2023-03-14T00:06:16;97457.0;;;2.68;100.0
63954;BME280;50128;52.094;5.232;2023-03-14T00:07:53;97455.0;;;2.67;100.0
63954;BME280;50128;52.094;5.232;2023-03-14T00:11:06;97456.0;;;2.71;100.0
63954;BME280;50128;52.094;5.232;2023-03-14T00:12:43;97454.0;;;2.72;100.0
63954;BME280;50128;52.094;5.232;2023-03-14T00:14:20;97453.0;;;2.77;100.0
63954;BME280;50128;52.094;5.232;2023-03-14T00:17:39;97454.0;;;2.77;100.0
63954;BME280;50128;52.094;5.232;2023-03-14T00:19:14;97452.0;;;2.82;100.0
63954;BME280;50128;52.094;5.232;2023-03-14T00:20:51;97456.0;;;2.79;100.0
63954;BME280;50128;52.094;5.232;2023-03-14T00:22:29;97455.0;;;2.75;100.0
63954;BME280;50128;52.094;5.232;2023-03-14T00:25:43;97453.0;;;2.77;100.0
63954;BME280;50128;52.094;5.232;2023-03-14T00:27:19;97454.0;;;2.82;100.0
63954;BME280;50128;52.094;5.232;2023-03-14T00:28:55;97452.0;;;2.75;100.0
63954;BME280;50128;52.094;5.232;2023-03-14T00:32:07;97445.0;;;2.74;100.0
63954;BME280;50128;52.094;5.232;2023-03-14T00:33:44;97437.0;;;2.76;100.0
63954;BME280;50128;52.094;5.232;2023-03-14T00:35:20;97449.0;;;2.76;99.82
63954;BME280;50128;52.094;5.232;2023-03-14T00:36:57;97446.0;;;2.69;99.77
63954;BME280;50128;52.094;5.232;2023-03-14T00:40:10;97454.0;;;2.73;99.96
63954;BME280;50128;52.094;5.232;2023-03-14T00:41:46;97461.0;;;2.7;98.6
63954;BME280;50128;52.094;5.232;2023-03-14T00:43:22;97450.0;;;2.75;98.7
63954;BME280;50128;52.094;5.232;2023-03-14T00:46:35;97453.0;;;2.71;97.77
63954;BME280;50128;52.094;5.232;2023-03-14T00:48:11;97453.0;;;2.74;97.83
63954;BME280;50128;52.094;5.232;2023-03-14T00:49:48;97461.0;;;2.74;97.64
63954;BME280;50128;52.094;5.232;2023-03-14T00:53:00;97456.0;;;2.78;97.76
63954;BME280;50128;52.094;5.232;2023-03-14T00:54:36;97450.0;;;2.85;98.87
63954;BME280;50128;52.094;5.232;2023-03-14T00:56:12;97462.0;;;2.77;99.09
63954;BME280;50128;52.094;5.232;2023-03-14T00:59:25;97456.0;;;2.7;100.0
63954;BME280;50128;52.094;5.232;2023-03-14T01:01:05;97455.0;;;2.7;100.0
63954;BME280;50128;52.094;5.232;2023-03-14T01:02:42;97451.0;;;2.65;100.0
63954;BME280;50128;52.094;5.232;2023-03-14T01:04:20;97457.0;;;2.61;100.0
63954;BME280;50128;52.094;5.232;2023-03-14T01:07:42;97463.0;;;2.48;100.0
63954;BME280;50128;52.094;5.232;2023-03-14T01:09:18;97461.0;;;2.44;100.0
63954;BME280;50128;52.094;5.232;2023-03-14T01:10:54;97465.0;;;2.23;100.0
63954;BME280;50128;52.094;5.232;2023-03-14T01:12:31;97467.0;;;2.25;100.0
63954;BME280;50128;52.094;5.232;2023-03-14T01:15:43;97467.0;;;2.21;100.0
63954;BME280;50128;52.094;5.232;2023-03-14T01:17:19;97465.0;;;2.14;100.0
63954;BME280;50128;52.094;5.232;2023-03-14T01:18:55;97475.0;;;2.11;100.0
63954;BME280;50128;52.094;5.232;2023-03-14T01:22:08;97469.0;;;2.02;100.0
63954;BME280;50128;52.094;5.232;2023-03-14T01:23:45;97472.0;;;2.02;100.0
63954;BME280;50128;52.094;5.232;2023-03-14T01:25:21;97473.0;;;2.02;100.0
63954;BME280;50128;52.094;5.232;2023-03-14T01:28:34;97473.0;;;2.04;100.0
63954;BME280;50128;52.094;5.232;2023-03-14T01:30:11;97469.0;;;1.95;100.0
63954;BME280;50128;52.094;5.232;2023-03-14T01:31:49;97468.0;;;1.84;100.0
63954;BME280;50128;52.094;5.232;2023-03-14T01:33:25;97460.0;;;1.77;100.0
63954;BME280;50128;52.094;5.232;2023-03-14T01:36:38;97469.0;;;1.85;100.0
63954;BME280;50128;52.094;5.232;2023-03-14T01:38:14;97456.0;;;1.84;100.0
63954;BME280;50128;52.094;5.232;2023-03-14T01:39:50;97458.0;;;1.92;100.0
63954;BME280;50128;52.094;5.232;2023-03-14T01:43:12;97450.0;;;1.84;100.0
63954;BME280;50128;52.094;5.232;2023-03-14T01:44:53;97448.0;;;1.89;100.0
63954;BME280;50128;52.094;5.232;2023-03-14T01:46:35;97445.0;;;1.95;100.0
63954;BME280;50128;52.094;5.232;2023-03-14T01:48:12;97448.0;;;2.0;100.0
63954;BME280;50128;52.094;5.232;2023-03-14T01:51:34;97446.0;;;2.04;100.0
63954;BME280;50128;52.094;5.232;2023-03-14T01:53:12;97447.0;;;2.06;100.0
63954;BME280;50128;52.094;5.232;2023-03-14T01:54:51;97453.0;;;2.1;100.0
63954;BME280;50128;52.094;5.232;2023-03-14T01:56:30;97449.0;;;2.04;100.0
63954;BME280;50128;52.094;5.232;2023-03-14T01:59:47;97440.0;;;2.09;100.0
63954;BME280;50128;52.094;5.232;2023-03-14T02:01:26;97437.0;;;2.02;100.0
63954;BME280;50128;52.094;5.232;2023-03-14T02:03:07;97429.0;;;2.04;100.0
63954;BME280;50128;52.094;5.232;2023-03-14T02:04:51;97425.0;;;2.06;100.0
63954;BME280;50128;52.094;5.232;2023-03-14T02:08:14;97423.0;;;2.06;100.0
63954;BME280;50128;52.094;5.232;2023-03-14T02:09:54;97417.0;;;2.06;100.0
63954;BME280;50128;52.094;5.232;2023-03-14T02:11:32;97425.0;;;2.11;100.0
63954;BME280;50128;52.094;5.232;2023-03-14T02:13:10;97427.0;;;2.08;100.0
63954;BME280;50128;52.094;5.232;2023-03-14T02:16:24;97429.0;;;2.02;100.0
63954;BME280;50128;52.094;5.232;2023-03-14T02:18:02;97424.0;;;2.04;100.0
63954;BME280;50128;52.094;5.232;2023-03-14T02:19:52;97419.0;;;2.05;100.0
63954;BME280;50128;52.094;5.232;2023-03-14T02:21:40;97412.0;;;2.14;100.0
63954;BME280;50128;52.094;5.232;2023-03-14T02:25:14;97412.0;;;2.12;100.0
63954;BME280;50128;52.094;5.232;2023-03-14T02:27:10;97411.0;;;2.08;100.0
63954;BME280;50128;52.094;5.232;2023-03-14T02:29:01;97403.0;;;2.04;100.0
63954;BME280;50128;52.094;5.232;2023-03-14T02:30:37;97399.0;;;2.04;100.0
63954;BME280;50128;52.094;5.232;2023-03-14T02:32:16;97403.0;;;2.04;100.0
63954;BME280;50128;52.094;5.232;2023-03-14T02:35:34;97402.0;;;1.99;100.0
63954;BME280;50128;52.094;5.232;2023-03-14T02:37:17;97398.0;;;2.04;100.0
63954;BME280;50128;52.094;5.232;2023-03-14T02:39:03;97393.0;;;1.99;100.0
63954;BME280;50128;52.094;5.232;2023-03-14T02:40:42;97396.0;;;1.96;100.0
63954;BME280;50128;52.094;5.232;2023-03-14T02:43:57;97397.0;;;2.09;100.0
63954;BME280;50128;52.094;5.232;2023-03-14T02:45:39;97401.0;;;2.09;100.0
63954;BME280;50128;52.094;5.232;2023-03-14T02:47:19;97399.0;;;1.96;100.0
63954;BME280;50128;52.094;5.232;2023-03-14T02:49:02;97397.0;;;2.04;100.0
63954;BME280;50128;52.094;5.232;2023-03-14T02:52:17;97388.0;;;2.1;100.0
63954;BME280;50128;52.094;5.232;2023-03-14T02:53:53;97384.0;;;2.05;100.0
63954;BME280;50128;52.094;5.232;2023-03-14T02:55:29;97388.0;;;2.13;100.0
63954;BME280;50128;52.094;5.232;2023-03-14T02:57:05;97380.0;;;2.02;100.0
63954;BME280;50128;52.094;5.232;2023-03-14T03:00:18;97384.0;;;2.1;100.0
63954;BME280;50128;52.094;5.232;2023-03-14T03:01:55;97384.0;;;2.19;100.0
63954;BME280;50128;52.094;5.232;2023-03-14T03:03:31;97385.0;;;2.17;100.0
63954;BME280;50128;52.094;5.232;2023-03-14T03:06:43;97389.0;;;2.13;100.0
63954;BME280;50128;52.094;5.232;2023-03-14T03:08:20;97391.0;;;2.09;100.0
63954;BME280;50128;52.094;5.232;2023-03-14T03:09:57;97392.0;;;1.99;100.0
63954;BME280;50128;52.094;5.232;2023-03-14T03:13:10;97381.0;;;1.96;100.0
63954;BME280;50128;52.094;5.232;2023-03-14T03:14:46;97380.0;;;2.02;100.0
63954;BME280;50128;52.094;5.232;2023-03-14T03:16:22;97373.0;;;1.96;100.0
63954;BME280;50128;52.094;5.232;2023-03-14T03:19:34;97378.0;;;2.0;100.0
63954;BME280;50128;52.094;5.232;2023-03-14T03:21:11;97377.0;;;2.02;100.0
63954;BME280;50128;52.094;5.232;2023-03-14T03:22:47;97377.0;;;1.99;100.0
63954;BME280;50128;52.094;5.232;2023-03-14T03:24:23;97372.0;;;2.02;100.0
63954;BME280;50128;52.094;5.232;2023-03-14T03:27:37;97365.0;;;2.06;100.0
63954;BME280;50128;52.094;5.232;2023-03-14T03:29:14;97361.0;;;2.04;100.0
63954;BME280;50128;52.094;5.232;2023-03-14T03:30:50;97362.0;;;2.13;100.0
63954;BME280;50128;52.094;5.232;2023-03-14T03:34:03;97359.0;;;2.16;100.0
63954;BME280;50128;52.094;5.232;2023-03-14T03:35:43;97353.0;;;2.02;100.0
63954;BME280;50128;52.094;5.232;2023-03-14T03:37:20;97351.0;;;2.06;100.0
63954;BME280;50128;52.094;5.232;2023-03-14T03:38:56;97348.0;;;2.05;100.0
63954;BME280;50128;52.094;5.232;2023-03-14T03:42:09;97350.0;;;2.02;100.0
63954;BME280;50128;52.094;5.232;2023-03-14T03:43:45;97359.0;;;2.12;100.0
63954;BME280;50128;52.094;5.232;2023-03-14T03:45:21;97360.0;;;2.08;100.0
63954;BME280;50128;52.094;5.232;2023-03-14T03:48:34;97358.0;;;2.13;100.0
63954;BME280;50128;52.094;5.232;2023-03-14T03:50:10;97357.0;;;2.19;100.0
63954;BME280;50128;52.094;5.232;2023-03-14T03:51:46;97357.0;;;2.19;100.0
63954;BME280;50128;52.094;5.232;2023-03-14T03:54:59;97355.0;;;2.17;100.0
63954;BME280;50128;52.094;5.232;2023-03-14T03:56:35;97353.0;;;2.17;100.0
63954;BME280;50128;52.094;5.232;2023-03-14T03:58:11;97351.0;;;2.21;100.0
63954;BME280;50128;52.094;5.232;2023-03-14T04:01:23;97353.0;;;2.23;100.0
63954;BME280;50128;52.094;5.232;2023-03-14T04:02:59;97350.0;;;2.27;100.0
63954;BME280;50128;52.094;5.232;2023-03-14T04:04:36;97349.0;;;2.21;100.0
63954;BME280;50128;52.094;5.232;2023-03-14T04:06:13;97351.0;;;2.21;100.0
63954;BME280;50128;52.094;5.232;2023-03-14T04:09:25;97356.0;;;2.25;100.0
63954;BME280;50128;52.094;5.232;2023-03-14T04:11:02;97348.0;;;2.27;100.0
63954;BME280;50128;52.094;5.232;2023-03-14T04:12:39;97358.0;;;2.27;100.0
63954;BME280;50128;52.094;5.232;2023-03-14T04:15:52;97351.0;;;2.35;100.0
63954;BME280;50128;52.094;5.232;2023-03-14T04:17:28;97353.0;;;2.37;100.0
63954;BME280;50128;52.094;5.232;2023-03-14T04:19:04;97352.0;;;2.29;100.0
63954;BME280;50128;52.094;5.232;2023-03-14T04:22:17;97357.0;;;2.31;100.0
63954;BME280;50128;52.094;5.232;2023-03-14T04:23:53;97361.0;;;2.25;100.0
63954;BME280;50128;52.094;5.232;2023-03-14T04:25:30;97360.0;;;2.32;100.0
63954;BME280;50128;52.094;5.232;2023-03-14T04:27:06;97356.0;;;2.5;100.0
63954;BME280;50128;52.094;5.232;2023-03-14T04:30:19;97364.0;;;2.5;100.0
63954;BME280;50128;52.094;5.232;2023-03-14T04:31:55;97362.0;;;2.44;100.0
63954;BME280;50128;52.094;5.232;2023-03-14T04:33:32;97359.0;;;2.38;100.0
63954;BME280;50128;52.094;5.232;2023-03-14T04:36:44;97353.0;;;2.34;100.0
63954;BME280;50128;52.094;5.232;2023-03-14T04:38:20;97351.0;;;2.44;100.0
63954;BME280;50128;52.094;5.232;2023-03-14T04:39:56;97344.0;;;2.44;100.0
63954;BME280;50128;52.094;5.232;2023-03-14T04:43:10;97350.0;;;2.39;100.0
63954;BME280;50128;52.094;5.232;2023-03-14T04:44:47;97345.0;;;2.38;100.0
63954;BME280;50128;52.094;5.232;2023-03-14T04:46:23;97340.0;;;2.41;100.0
63954;BME280;50128;52.094;5.232;2023-03-14T04:47:59;97337.0;;;2.38;100.0
63954;BME280;50128;52.094;5.232;2023-03-14T04:51:11;97334.0;;;2.38;100.0
63954;BME280;50128;52.094;5.232;2023-03-14T04:52:47;97336.0;;;2.35;100.0
63954;BME280;50128;52.094;5.232;2023-03-14T04:54:23;97341.0;;;2.33;100.0
63954;BME280;50128;52.094;5.232;2023-03-14T04:57:36;97339.0;;;2.36;100.0
63954;BME280;50128;52.094;5.232;2023-03-14T04:59:13;97344.0;;;2.34;100.0
63954;BME280;50128;52.094;5.232;2023-03-14T05:00:49;97342.0;;;2.36;100.0
63954;BME280;50128;52.094;5.232;2023-03-14T05:04:02;97345.0;;;2.32;100.0
63954;BME280;50128;52.094;5.232;2023-03-14T05:05:38;97337.0;;;2.27;100.0
63954;BME280;50128;52.094;5.232;2023-03-14T05:07:14;97349.0;;;2.19;100.0
63954;BME280;50128;52.094;5.232;2023-03-14T05:10:26;97342.0;;;2.16;100.0
63954;BME280;50128;52.094;5.232;2023-03-14T05:12:03;97338.0;;;2.08;100.0
63954;BME280;50128;52.094;5.232;2023-03-14T05:13:39;97331.0;;;2.07;100.0
63954;BME280;50128;52.094;5.232;2023-03-14T05:15:15;97328.0;;;2.14;100.0
63954;BME280;50128;52.094;5.232;2023-03-14T05:18:27;97324.0;;;2.06;100.0
63954;BME280;50128;52.094;5.232;2023-03-14T05:20:04;97326.0;;;2.1;100.0
63954;BME280;50128;52.094;5.232;2023-03-14T05:21:40;97322.0;;;1.98;100.0
63954;BME280;50128;52.094;5.232;2023-03-14T05:24:53;97318.0;;;2.07;100.0
63954;BME280;50128;52.094;5.232;2023-03-14T05:26:29;97313.0;;;2.04;100.0
63954;BME280;50128;52.094;5.232;2023-03-14T05:28:06;97311.0;;;2.11;100.0
63954;BME280;50128;52.094;5.232;2023-03-14T05:31:18;97314.0;;;2.17;100.0
63954;BME280;50128;52.094;5.232;2023-03-14T05:32:54;97312.0;;;2.0;100.0
63954;BME280;50128;52.094;5.232;2023-03-14T05:34:30;97315.0;;;1.96;100.0
63954;BME280;50128;52.094;5.232;2023-03-14T05:36:07;97317.0;;;1.99;100.0
63954;BME280;50128;52.094;5.232;2023-03-14T05:39:20;97320.0;;;2.02;100.0
63954;BME280;50128;52.094;5.232;2023-03-14T05:40:56;97317.0;;;2.04;100.0
63954;BME280;50128;52.094;5.232;2023-03-14T05:42:33;97312.0;;;2.08;100.0
63954;BME280;50128;52.094;5.232;2023-03-14T05:45:45;97317.0;;;1.98;100.0
63954;BME280;50128;52.094;5.232;2023-03-14T05:47:21;97317.0;;;2.0;100.0
63954;BME280;50128;52.094;5.232;2023-03-14T05:48:58;97313.0;;;1.96;100.0
63954;BME280;50128;52.094;5.232;2023-03-14T05:52:12;97317.0;;;1.91;100.0
63954;BME280;50128;52.094;5.232;2023-03-14T05:53:48;97319.0;;;2.02;100.0
63954;BME280;50128;52.094;5.232;2023-03-14T05:55:24;97316.0;;;1.98;100.0
63954;BME280;50128;52.094;5.232;2023-03-14T05:57:01;97310.0;;;1.96;100.0
63954;BME280;50128;52.094;5.232;2023-03-14T06:00:14;97314.0;;;2.0;100.0
63954;BME280;50128;52.094;5.232;2023-03-14T06:01:50;97311.0;;;1.94;100.0
63954;BME280;50128;52.094;5.232;2023-03-14T06:03:26;97313.0;;;1.89;100.0
63954;BME280;50128;52.094;5.232;2023-03-14T06:06:41;97321.0;;;1.82;100.0
63954;BME280;50128;52.094;5.232;2023-03-14T06:08:17;97310.0;;;1.74;100.0
63954;BME280;50128;52.094;5.232;2023-03-14T06:09:53;97311.0;;;1.8;100.0
63954;BME280;50128;52.094;5.232;2023-03-14T06:13:05;97312.0;;;1.75;100.0
63954;BME280;50128;52.094;5.232;2023-03-14T06:14:41;97317.0;;;1.8;100.0
63954;BME280;50128;52.094;5.232;2023-03-14T06:16:17;97310.0;;;1.83;100.0
63954;BME280;50128;52.094;5.232;2023-03-14T06:19:31;97308.0;;;1.89;100.0
63954;BME280;50128;52.094;5.232;2023-03-14T06:21:07;97313.0;;;1.88;100.0
63954;BME280;50128;52.094;5.232;2023-03-14T06:22:44;97313.0;;;1.79;100.0
63954;BME280;50128;52.094;5.232;2023-03-14T06:24:20;97334.0;;;1.72;100.0
63954;BME280;50128;52.094;5.232;2023-03-14T06:27:33;97369.0;;;1.68;100.0
63954;BME280;50128;52.094;5.232;2023-03-14T06:29:09;97371.0;;;1.7;100.0
63954;BME280;50128;52.094;5.232;2023-03-14T06:30:45;97381.0;;;1.59;100.0
63954;BME280;50128;52.094;5.232;2023-03-14T06:33:58;97400.0;;;1.49;100.0
63954;BME280;50128;52.094;5.232;2023-03-14T06:35:35;97404.0;;;1.46;100.0
63954;BME280;50128;52.094;5.232;2023-03-14T06:37:11;97416.0;;;1.35;100.0
63954;BME280;50128;52.094;5.232;2023-03-14T06:40:23;97435.0;;;1.16;100.0
63954;BME280;50128;52.094;5.232;2023-03-14T06:41:59;97432.0;;;1.16;100.0
63954;BME280;50128;52.094;5.232;2023-03-14T06:43:35;97438.0;;;1.1;100.0
63954;BME280;50128;52.094;5.232;2023-03-14T06:45:12;97441.0;;;1.18;100.0
63954;BME280;50128;52.094;5.232;2023-03-14T06:48:25;97448.0;;;1.18;100.0
63954;BME280;50128;52.094;5.232;2023-03-14T06:50:03;97455.0;;;1.14;100.0
63954;BME280;50128;52.094;5.232;2023-03-14T06:51:39;97459.0;;;1.06;100.0
63954;BME280;50128;52.094;5.232;2023-03-14T06:54:52;97466.0;;;0.99;100.0
63954;BME280;50128;52.094;5.232;2023-03-14T06:56:29;97464.0;;;1.16;100.0
63954;BME280;50128;52.094;5.232;2023-03-14T06:58:05;97471.0;;;0.93;100.0
63954;BME280;50128;52.094;5.232;2023-03-14T07:01:21;97474.0;;;0.71;100.0
63954;BME280;50128;52.094;5.232;2023-03-14T07:02:58;97478.0;;;0.86;100.0
63954;BME280;50128;52.094;5.232;2023-03-14T07:04:34;97488.0;;;0.81;100.0
63954;BME280;50128;52.094;5.232;2023-03-14T07:06:10;97491.0;;;0.83;100.0
63954;BME280;50128;52.094;5.232;2023-03-14T07:09:23;97494.0;;;0.85;100.0
63954;BME280;50128;52.094;5.232;2023-03-14T07:10:59;97505.0;;;0.8;100.0
63954;BME280;50128;52.094;5.232;2023-03-14T07:12:35;97515.0;;;0.87;100.0
63954;BME280;50128;52.094;5.232;2023-03-14T07:15:47;97519.0;;;0.68;100.0
63954;BME280;50128;52.094;5.232;2023-03-14T07:17:23;97536.0;;;0.58;100.0
63954;BME280;50128;52.094;5.232;2023-03-14T07:19:00;97539.0;;;0.6;100.0
63954;BME280;50128;52.094;5.232;2023-03-14T07:22:13;97554.0;;;0.66;100.0
63954;BME280;50128;52.094;5.232;2023-03-14T07:23:49;97554.0;;;0.6;100.0
63954;BME280;50128;52.094;5.232;2023-03-14T07:25:25;97569.0;;;0.59;100.0
63954;BME280;50128;52.094;5.232;2023-03-14T07:27:02;97575.0;;;0.57;100.0
63954;BME280;50128;52.094;5.232;2023-03-14T07:30:14;97588.0;;;0.48;100.0
63954;BME280;50128;52.094;5.232;2023-03-14T07:31:50;97592.0;;;0.49;100.0
63954;BME280;50128;52.094;5.232;2023-03-14T07:33:26;97599.0;;;0.42;100.0
63954;BME280;50128;52.094;5.232;2023-03-14T07:36:40;97600.0;;;0.51;100.0
63954;BME280;50128;52.094;5.232;2023-03-14T07:38:17;97616.0;;;0.52;100.0
63954;BME280;50128;52.094;5.232;2023-03-14T07:39:52;97622.0;;;0.46;100.0
63954;BME280;50128;52.094;5.232;2023-03-14T07:43:04;97630.0;;;0.48;100.0
63954;BME280;50128;52.094;5.232;2023-03-14T07:44:41;97645.0;;;0.39;100.0
63954;BME280;50128;52.094;5.232;2023-03-14T07:46:17;97649.0;;;0.41;100.0
63954;BME280;50128;52.094;5.232;2023-03-14T07:47:52;97658.0;;;0.42;100.0
63954;BME280;50128;52.094;5.232;2023-03-14T07:51:05;97663.0;;;0.53;100.0
63954;BME280;50128;52.094;5.232;2023-03-14T07:52:41;97675.0;;;0.48;100.0
63954;BME280;50128;52.094;5.232;2023-03-14T07:54:17;97683.0;;;0.36;100.0
63954;BME280;50128;52.094;5.232;2023-03-14T07:57:29;97694.0;;;0.31;100.0
63954;BME280;50128;52.094;5.232;2023-03-14T07:59:05;97701.0;;;0.15;100.0
63954;BME280;50128;52.094;5.232;2023-03-14T08:00:42;97711.0;;;0.2;100.0
63954;BME280;50128;52.094;5.232;2023-03-14T08:03:55;97720.0;;;0.13;100.0
63954;BME280;50128;52.094;5.232;2023-03-14T08:05:34;97735.0;;;0.12;100.0
63954;BME280;50128;52.094;5.232;2023-03-14T08:07:10;97743.0;;;0.06;100.0
63954;BME280;50128;52.094;5.232;2023-03-14T08:10:22;97748.0;;;0.11;100.0
63954;BME280;50128;52.094;5.232;2023-03-14T08:11:58;97764.0;;;0.01;100.0
63954;BME280;50128;52.094;5.232;2023-03-14T08:13:35;97770.0;;;-0.11;100.0
63954;BME280;50128;52.094;5.232;2023-03-14T08:15:13;97793.0;;;-0.35;100.0
63954;BME280;50128;52.094;5.232;2023-03-14T08:18:26;97800.0;;;-0.42;100.0
63954;BME280;50128;52.094;5.232;2023-03-14T08:20:03;97820.0;;;-0.57;100.0
63954;BME280;50128;52.094;5.232;2023-03-14T08:21:39;97834.0;;;-0.75;100.0
63954;BME280;50128;52.094;5.232;2023-03-14T08:24:51;97835.0;;;-0.91;100.0
63954;BME280;50128;52.094;5.232;2023-03-14T08:26:27;97847.0;;;-0.96;100.0
63954;BME280;50128;52.094;5.232;2023-03-14T08:28:04;97859.0;;;-0.93;100.0
63954;BME280;50128;52.094;5.232;2023-03-14T08:31:17;97852.0;;;-0.93;100.0
63954;BME280;50128;52.094;5.232;2023-03-14T08:32:53;97886.0;;;-1.07;100.0
63954;BME280;50128;52.094;5.232;2023-03-14T08:34:32;97888.0;;;-1.3;100.0
63954;BME280;50128;52.094;5.232;2023-03-14T08:36:10;97892.0;;;-1.66;100.0
63954;BME280;50128;52.094;5.232;2023-03-14T08:39:22;97903.0;;;-1.8;100.0
63954;BME280;50128;52.094;5.232;2023-03-14T08:41:00;97909.0;;;-1.7;100.0
63954;BME280;50128;52.094;5.232;2023-03-14T08:42:37;97922.0;;;-1.65;100.0
63954;BME280;50128;52.094;5.232;2023-03-14T08:45:50;97929.0;;;-1.39;100.0
63954;BME280;50128;52.094;5.232;2023-03-14T08:47:26;97930.0;;;-1.34;100.0
63954;BME280;50128;52.094;5.232;2023-03-14T08:49:02;97940.0;;;-1.15;100.0
63954;BME280;50128;52.094;5.232;2023-03-14T08:50:39;97948.0;;;-1.17;100.0
63954;BME280;50128;52.094;5.232;2023-03-14T08:53:52;97963.0;;;-0.99;100.0
63954;BME280;50128;52.094;5.232;2023-03-14T08:55:29;97962.0;;;-1.13;100.0
63954;BME280;50128;52.094;5.232;2023-03-14T08:57:05;97975.0;;;-1.05;100.0
63954;BME280;50128;52.094;5.232;2023-03-14T09:00:19;97988.0;;;-1.11;100.0
63954;BME280;50128;52.094;5.232;2023-03-14T09:01:55;97991.0;;;-0.91;100.0
63954;BME280;50128;52.094;5.232;2023-03-14T09:03:31;98009.0;;;-0.87;100.0
63954;BME280;50128;52.094;5.232;2023-03-14T09:06:44;98012.0;;;-1.12;100.0
63954;BME280;50128;52.094;5.232;2023-03-14T09:08:21;98020.0;;;-0.99;100.0
63954;BME280;50128;52.094;5.232;2023-03-14T09:09:57;98027.0;;;-0.88;100.0
63954;BME280;50128;52.094;5.232;2023-03-14T09:11:33;98029.0;;;-0.84;100.0
63954;BME280;50128;52.094;5.232;2023-03-14T09:14:45;98043.0;;;-0.88;100.0
63954;BME280;50128;52.094;5.232;2023-03-14T09:16:21;98046.0;;;-0.8;100.0
63954;BME280;50128;52.094;5.232;2023-03-14T09:17:57;98061.0;;;-0.76;100.0
63954;BME280;50128;52.094;5.232;2023-03-14T09:21:10;98067.0;;;-1.0;100.0
63954;BME280;50128;52.094;5.232;2023-03-14T09:22:46;98074.0;;;-0.99;100.0
63954;BME280;50128;52.094;5.232;2023-03-14T09:24:22;98083.0;;;-0.88;100.0
63954;BME280;50128;52.094;5.232;2023-03-14T09:27:35;98091.0;;;-0.95;100.0
63954;BME280;50128;52.094;5.232;2023-03-14T09:29:11;98098.0;;;-0.96;100.0
63954;BME280;50128;52.094;5.232;2023-03-14T09:30:47;98112.0;;;-1.04;100.0
63954;BME280;50128;52.094;5.232;2023-03-14T09:33:59;98111.0;;;-1.03;100.0
63954;BME280;50128;52.094;5.232;2023-03-14T09:35:35;98136.0;;;-1.19;100.0
63954;BME280;50128;52.094;5.232;2023-03-14T09:37:12;98132.0;;;-1.24;100.0
63954;BME280;50128;52.094;5.232;2023-03-14T09:38:48;98139.0;;;-1.4;97.92
63954;BME280;50128;52.094;5.232;2023-03-14T09:42:13;98141.0;;;-1.27;98.6
63954;BME280;50128;52.094;5.232;2023-03-14T09:44:00;98153.0;;;-1.2;98.78
63954;BME280;50128;52.094;5.232;2023-03-14T09:45:40;98168.0;;;-1.25;96.81
63954;BME280;50128;52.094;5.232;2023-03-14T09:47:18;98171.0;;;-1.26;97.45
63954;BME280;50128;52.094;5.232;2023-03-14T09:50:36;98181.0;;;-1.14;97.61
63954;BME280;50128;52.094;5.232;2023-03-14T09:52:15;98187.0;;;-1.09;99.48
63954;BME280;50128;52.094;5.232;2023-03-14T09:53:55;98192.0;;;-0.95;99.04
63954;BME280;50128;52.094;5.232;2023-03-14T09:55:32;98200.0;;;-0.79;99.37
63954;BME280;50128;52.094;5.232;2023-03-14T09:58:52;98199.0;;;-0.89;98.23
63954;BME280;50128;52.094;5.232;2023-03-14T10:00:31;98205.0;;;-0.73;98.98
63954;BME280;50128;52.094;5.232;2023-03-14T10:02:14;98211.0;;;-0.68;98.96
63954;BME280;50128;52.094;5.232;2023-03-14T10:03:55;98218.0;;;-0.62;98.92
63954;BME280;50128;52.094;5.232;2023-03-14T10:07:11;98233.0;;;-0.48;97.8
63954;BME280;50128;52.094;5.232;2023-03-14T10:08:50;98245.0;;;-0.55;97.74
63954;BME280;50128;52.094;5.232;2023-03-14T10:10:27;98255.0;;;-0.52;98.23
63954;BME280;50128;52.094;5.232;2023-03-14T10:13:49;98268.0;;;-0.67;100.0
63954;BME280;50128;52.094;5.232;2023-03-14T10:15:27;98283.0;;;-0.75;100.0
63954;BME280;50128;52.094;5.232;2023-03-14T10:17:08;98279.0;;;-1.13;100.0
63954;BME280;50128;52.094;5.232;2023-03-14T10:18:46;98290.0;;;-0.9;100.0
63954;BME280;50128;52.094;5.232;2023-03-14T10:22:12;98316.0;;;-1.14;100.0
63954;BME280;50128;52.094;5.232;2023-03-14T10:23:50;98315.0;;;-1.23;100.0
63954;BME280;50128;52.094;5.232;2023-03-14T10:25:28;98317.0;;;-1.22;100.0
63954;BME280;50128;52.094;5.232;2023-03-14T10:27:18;98313.0;;;-1.2;100.0
63954;BME280;50128;52.094;5.232;2023-03-14T10:30:44;98326.0;;;-1.02;99.28
63954;BME280;50128;52.094;5.232;2023-03-14T10:32:21;98328.0;;;-1.06;98.62
63954;BME280;50128;52.094;5.232;2023-03-14T10:34:04;98338.0;;;-0.93;100.0
63954;BME280;50128;52.094;5.232;2023-03-14T10:35:41;98343.0;;;-0.94;100.0
63954;BME280;50128;52.094;5.232;2023-03-14T10:38:58;98347.0;;;-0.73;100.0
63954;BME280;50128;52.094;5.232;2023-03-14T10:40:53;98358.0;;;-0.56;100.0
63954;BME280;50128;52.094;5.232;2023-03-14T10:42:31;98368.0;;;-0.49;98.05
63954;BME280;50128;52.094;5.232;2023-03-14T10:44:11;98380.0;;;-0.39;97.19
63954;BME280;50128;52.094;5.232;2023-03-14T10:45:52;98382.0;;;-0.22;98.95
63954;BME280;50128;52.094;5.232;2023-03-14T10:49:25;98388.0;;;-0.14;97.0
63954;BME280;50128;52.094;5.232;2023-03-14T10:51:05;98392.0;;;-0.09;96.8
63954;BME280;50128;52.094;5.232;2023-03-14T10:52:47;98407.0;;;-0.28;95.52
63954;BME280;50128;52.094;5.232;2023-03-14T10:54:24;98415.0;;;-0.24;94.51
63954;BME280;50128;52.094;5.232;2023-03-14T10:57:43;98443.0;;;-0.5;90.08
63954;BME280;50128;52.094;5.232;2023-03-14T10:59:19;98448.0;;;-0.37;91.48
63954;BME280;50128;52.094;5.232;2023-03-14T11:01:03;98451.0;;;-0.72;90.72
63954;BME280;50128;52.094;5.232;2023-03-14T11:02:51;98458.0;;;-0.74;89.79
63954;BME280;50128;52.094;5.232;2023-03-14T11:04:54;98475.0;;;-0.83;89.07
63954;BME280;50128;52.094;5.232;2023-03-14T11:08:24;98478.0;;;-0.89;88.66
63954;BME280;50128;52.094;5.232;2023-03-14T11:10:11;98489.0;;;-0.85;89.29
63954;BME280;50128;52.094;5.232;2023-03-14T11:12:01;98498.0;;;-0.71;87.29
63954;BME280;50128;52.094;5.232;2023-03-14T11:13:44;98499.0;;;-0.77;85.21
63954;BME280;50128;52.094;5.232;2023-03-14T11:15:31;98508.0;;;-0.63;85.56
63954;BME280;50128;52.094;5.232;2023-03-14T11:17:15;98521.0;;;-0.63;86.5
63954;BME280;50128;52.094;5.232;2023-03-14T11:21:08;98526.0;;;-0.57;85.25
63954;BME280;50128;52.094;5.232;2023-03-14T11:22:55;98533.0;;;-0.43;85.46